sensor_id;sensor_type;location;lat;lon;timestamp;pressure;altitude;pressure_sealevel;temperature
80246;BMP280;69558;39.208;-77.226;2023-04-24T00:00:21;100210.41;;;19.46
80246;BMP280;69558;39.208;-77.226;2023-04-24T00:02:47;100217.63;;;19.44
80246;BMP280;69558;39.208;-77.226;2023-04-24T00:05:17;100219.47;;;19.43
80246;BMP280;69558;39.208;-77.226;2023-04-24T00:07:44;100235.88;;;19.45
80246;BMP280;69558;39.208;-77.226;2023-04-24T00:10:11;100234.28;;;19.44
80246;BMP280;69558;39.208;-77.226;2023-04-24T00:12:37;100238.88;;;19.42
80246;BMP280;69558;39.208;-77.226;2023-04-24T00:15:05;100250.06;;;19.44
80246;BMP280;69558;39.208;-77.226;2023-04-24T00:17:31;100248.41;;;19.43
80246;BMP280;69558;39.208;-77.226;2023-04-24T00:19:57;100237.25;;;19.35
80246;BMP280;69558;39.208;-77.226;2023-04-24T00:22:28;100235.22;;;19.37
80246;BMP280;69558;39.208;-77.226;2023-04-24T00:24:54;100244.94;;;19.36
80246;BMP280;69558;39.208;-77.226;2023-04-24T00:27:20;100252.25;;;19.41
80246;BMP280;69558;39.208;-77.226;2023-04-24T00:29:46;100255.88;;;19.40
80246;BMP280;69558;39.208;-77.226;2023-04-24T00:32:13;100257.88;;;19.38
80246;BMP280;69558;39.208;-77.226;2023-04-24T00:34:40;100270.44;;;19.36
80246;BMP280;69558;39.208;-77.226;2023-04-24T00:37:07;100255.00;;;19.26
80246;BMP280;69558;39.208;-77.226;2023-04-24T00:39:33;100275.69;;;19.36
80246;BMP280;69558;39.208;-77.226;2023-04-24T00:41:59;100278.31;;;19.36
80246;BMP280;69558;39.208;-77.226;2023-04-24T00:44:25;100277.66;;;19.34
80246;BMP280;69558;39.208;-77.226;2023-04-24T00:46:51;100286.38;;;19.34
80246;BMP280;69558;39.208;-77.226;2023-04-24T00:49:21;100286.38;;;19.34
80246;BMP280;69558;39.208;-77.226;2023-04-24T00:51:47;100286.38;;;19.34
80246;BMP280;69558;39.208;-77.226;2023-04-24T00:54:13;100270.34;;;19.29
80246;BMP280;69558;39.208;-77.226;2023-04-24T00:56:40;100290.81;;;19.34
80246;BMP280;69558;39.208;-77.226;2023-04-24T00:59:08;100292.63;;;19.33
80246;BMP280;69558;39.208;-77.226;2023-04-24T01:01:34;100287.56;;;19.25
80246;BMP280;69558;39.208;-77.226;2023-04-24T01:04:01;100318.34;;;19.31
80246;BMP280;69558;39.208;-77.226;2023-04-24T01:06:28;100320.75;;;19.33
80246;BMP280;69558;39.208;-77.226;2023-04-24T01:08:57;100319.16;;;19.32
80246;BMP280;69558;39.208;-77.226;2023-04-24T01:11:25;100325.22;;;19.32
80246;BMP280;69558;39.208;-77.226;2023-04-24T01:13:51;100324.44;;;19.32
80246;BMP280;69558;39.208;-77.226;2023-04-24T01:16:17;100330.69;;;19.31
80246;BMP280;69558;39.208;-77.226;2023-04-24T01:18:46;100337.75;;;19.30
80246;BMP280;69558;39.208;-77.226;2023-04-24T01:21:15;100339.59;;;19.30
80246;BMP280;69558;39.208;-77.226;2023-04-24T01:23:45;100335.84;;;19.24
80246;BMP280;69558;39.208;-77.226;2023-04-24T01:26:13;100350.09;;;19.30
80246;BMP280;69558;39.208;-77.226;2023-04-24T01:28:41;100344.78;;;19.23
80246;BMP280;69558;39.208;-77.226;2023-04-24T01:31:07;100347.59;;;19.22
80246;BMP280;69558;39.208;-77.226;2023-04-24T01:33:33;100360.81;;;19.28
80246;BMP280;69558;39.208;-77.226;2023-04-24T01:35:59;100352.88;;;19.22
80246;BMP280;69558;39.208;-77.226;2023-04-24T01:38:25;100342.91;;;19.17
80246;BMP280;69558;39.208;-77.226;2023-04-24T01:40:53;100364.44;;;19.27
80246;BMP280;69558;39.208;-77.226;2023-04-24T01:43:19;100367.06;;;19.27
80246;BMP280;69558;39.208;-77.226;2023-04-24T01:45:46;100375.31;;;19.24
80246;BMP280;69558;39.208;-77.226;2023-04-24T01:48:12;100366.94;;;19.14
80246;BMP280;69558;39.208;-77.226;2023-04-24T01:50:38;100375.28;;;19.18
80246;BMP280;69558;39.208;-77.226;2023-04-24T01:53:05;100387.66;;;19.24
80246;BMP280;69558;39.208;-77.226;2023-04-24T01:55:31;100384.00;;;19.25
80246;BMP280;69558;39.208;-77.226;2023-04-24T01:57:58;100381.38;;;19.25
80246;BMP280;69558;39.208;-77.226;2023-04-24T02:00:25;100391.09;;;19.24
80246;BMP280;69558;39.208;-77.226;2023-04-24T02:02:51;100397.38;;;19.23
80246;BMP280;69558;39.208;-77.226;2023-04-24T02:05:17;100399.19;;;19.23
80246;BMP280;69558;39.208;-77.226;2023-04-24T02:07:43;100397.75;;;19.20
80246;BMP280;69558;39.208;-77.226;2023-04-24T02:10:10;100384.91;;;19.10
80246;BMP280;69558;39.208;-77.226;2023-04-24T02:12:37;100393.50;;;19.19
80246;BMP280;69558;39.208;-77.226;2023-04-24T02:15:03;100401.19;;;19.21
80246;BMP280;69558;39.208;-77.226;2023-04-24T02:17:30;100383.47;;;19.08
80246;BMP280;69558;39.208;-77.226;2023-04-24T02:19:57;100411.91;;;19.19
80246;BMP280;69558;39.208;-77.226;2023-04-24T02:22:23;100418.97;;;19.19
80246;BMP280;69558;39.208;-77.226;2023-04-24T02:24:49;100426.88;;;19.19
80246;BMP280;69558;39.208;-77.226;2023-04-24T02:27:15;100426.06;;;19.18
80246;BMP280;69558;39.208;-77.226;2023-04-24T02:29:40;100423.19;;;19.13
80246;BMP280;69558;39.208;-77.226;2023-04-24T02:32:06;100429.50;;;19.19
80246;BMP280;69558;39.208;-77.226;2023-04-24T02:34:33;100418.34;;;19.17
80246;BMP280;69558;39.208;-77.226;2023-04-24T02:36:59;100416.72;;;19.16
80246;BMP280;69558;39.208;-77.226;2023-04-24T02:39:24;100419.34;;;19.16
80246;BMP280;69558;39.208;-77.226;2023-04-24T02:41:50;100407.97;;;19.08
80246;BMP280;69558;39.208;-77.226;2023-04-24T02:44:16;100420.16;;;19.16
80246;BMP280;69558;39.208;-77.226;2023-04-24T02:46:43;100419.34;;;19.16
80246;BMP280;69558;39.208;-77.226;2023-04-24T02:49:11;100411.84;;;19.12
80246;BMP280;69558;39.208;-77.226;2023-04-24T02:51:37;100412.41;;;19.08
80246;BMP280;69558;39.208;-77.226;2023-04-24T02:54:07;100423.19;;;19.13
80246;BMP280;69558;39.208;-77.226;2023-04-24T02:56:34;100418.28;;;19.10
80246;BMP280;69558;39.208;-77.226;2023-04-24T02:59:00;100405.97;;;19.10
80246;BMP280;69558;39.208;-77.226;2023-04-24T03:01:26;100413.66;;;19.12
80246;BMP280;69558;39.208;-77.226;2023-04-24T03:03:52;100418.47;;;19.08
80246;BMP280;69558;39.208;-77.226;2023-04-24T03:06:18;100420.72;;;19.11
80246;BMP280;69558;39.208;-77.226;2023-04-24T03:08:45;100416.47;;;19.10
80246;BMP280;69558;39.208;-77.226;2023-04-24T03:11:11;100418.09;;;19.11
80246;BMP280;69558;39.208;-77.226;2023-04-24T03:13:37;100412.16;;;19.03
80246;BMP280;69558;39.208;-77.226;2023-04-24T03:16:03;100426.19;;;19.10
80246;BMP280;69558;39.208;-77.226;2023-04-24T03:18:30;100426.19;;;19.10
80246;BMP280;69558;39.208;-77.226;2023-04-24T03:20:56;100436.88;;;19.08
80246;BMP280;69558;39.208;-77.226;2023-04-24T03:23:22;100429.00;;;19.08
80246;BMP280;69558;39.208;-77.226;2023-04-24T03:25:48;100428.00;;;19.09
80246;BMP280;69558;39.208;-77.226;2023-04-24T03:28:14;100429.81;;;19.09
80246;BMP280;69558;39.208;-77.226;2023-04-24T03:30:41;100435.25;;;19.07
80246;BMP280;69558;39.208;-77.226;2023-04-24T03:33:06;100435.44;;;19.06
80246;BMP280;69558;39.208;-77.226;2023-04-24T03:35:32;100431.56;;;19.02
80246;BMP280;69558;39.208;-77.226;2023-04-24T03:37:58;100435.00;;;19.02
80246;BMP280;69558;39.208;-77.226;2023-04-24T03:40:24;100444.31;;;19.05
80246;BMP280;69558;39.208;-77.226;2023-04-24T03:42:50;100446.97;;;19.05
80246;BMP280;69558;39.208;-77.226;2023-04-24T03:45:16;100449.78;;;19.03
80246;BMP280;69558;39.208;-77.226;2023-04-24T03:47:42;100444.50;;;19.03
80246;BMP280;69558;39.208;-77.226;2023-04-24T03:50:10;100435.09;;;18.94
80246;BMP280;69558;39.208;-77.226;2023-04-24T03:52:36;100444.25;;;18.98
80246;BMP280;69558;39.208;-77.226;2023-04-24T03:55:02;100452.41;;;19.03
80246;BMP280;69558;39.208;-77.226;2023-04-24T03:57:28;100450.13;;;19.00
80246;BMP280;69558;39.208;-77.226;2023-04-24T03:59:54;100455.41;;;19.00
80246;BMP280;69558;39.208;-77.226;2023-04-24T04:02:21;100451.00;;;19.01
80246;BMP280;69558;39.208;-77.226;2023-04-24T04:04:47;100437.19;;;18.99
80246;BMP280;69558;39.208;-77.226;2023-04-24T04:07:13;100444.88;;;19.00
80246;BMP280;69558;39.208;-77.226;2023-04-24T04:09:40;100434.56;;;18.99
80246;BMP280;69558;39.208;-77.226;2023-04-24T04:12:06;100431.28;;;18.97
80246;BMP280;69558;39.208;-77.226;2023-04-24T04:14:32;100428.22;;;18.93
80246;BMP280;69558;39.208;-77.226;2023-04-24T04:16:58;100430.84;;;18.93
80246;BMP280;69558;39.208;-77.226;2023-04-24T04:19:24;100431.47;;;18.95
80246;BMP280;69558;39.208;-77.226;2023-04-24T04:21:50;100407.84;;;18.80
80246;BMP280;69558;39.208;-77.226;2023-04-24T04:24:19;100430.66;;;18.95
80246;BMP280;69558;39.208;-77.226;2023-04-24T04:26:49;100425.41;;;18.95
80246;BMP280;69558;39.208;-77.226;2023-04-24T04:29:17;100432.47;;;18.94
80246;BMP280;69558;39.208;-77.226;2023-04-24T04:31:48;100424.59;;;18.94
80246;BMP280;69558;39.208;-77.226;2023-04-24T04:34:14;100427.22;;;18.94
80246;BMP280;69558;39.208;-77.226;2023-04-24T04:36:41;100427.78;;;18.90
80246;BMP280;69558;39.208;-77.226;2023-04-24T04:39:08;100434.47;;;18.92
80246;BMP280;69558;39.208;-77.226;2023-04-24T04:41:34;100438.94;;;18.92
80246;BMP280;69558;39.208;-77.226;2023-04-24T04:44:01;100437.09;;;18.92
80246;BMP280;69558;39.208;-77.226;2023-04-24T04:46:30;100438.94;;;18.92
80246;BMP280;69558;39.208;-77.226;2023-04-24T04:49:00;100447.63;;;18.92
80246;BMP280;69558;39.208;-77.226;2023-04-24T04:51:27;100443.41;;;18.91
80246;BMP280;69558;39.208;-77.226;2023-04-24T04:53:53;100437.47;;;18.89
80246;BMP280;69558;39.208;-77.226;2023-04-24T04:56:19;100437.47;;;18.89
80246;BMP280;69558;39.208;-77.226;2023-04-24T04:58:45;100435.66;;;18.90
80246;BMP280;69558;39.208;-77.226;2023-04-24T05:01:11;100426.38;;;18.87
80246;BMP280;69558;39.208;-77.226;2023-04-24T05:03:38;100425.56;;;18.87
80246;BMP280;69558;39.208;-77.226;2023-04-24T05:06:04;100420.84;;;18.82
80246;BMP280;69558;39.208;-77.226;2023-04-24T05:08:30;100416.56;;;18.81
80246;BMP280;69558;39.208;-77.226;2023-04-24T05:10:56;100418.38;;;18.80
80246;BMP280;69558;39.208;-77.226;2023-04-24T05:13:22;100413.31;;;18.79
80246;BMP280;69558;39.208;-77.226;2023-04-24T05:15:48;100411.50;;;18.79
80246;BMP280;69558;39.208;-77.226;2023-04-24T05:18:14;100400.16;;;18.79
80246;BMP280;69558;39.208;-77.226;2023-04-24T05:20:41;100402.19;;;18.77
80246;BMP280;69558;39.208;-77.226;2023-04-24T05:23:09;100398.91;;;18.75
80246;BMP280;69558;39.208;-77.226;2023-04-24T05:25:35;100388.94;;;18.70
80246;BMP280;69558;39.208;-77.226;2023-04-24T05:28:02;100386.97;;;18.72
80246;BMP280;69558;39.208;-77.226;2023-04-24T05:30:28;100406.22;;;18.79
80246;BMP280;69558;39.208;-77.226;2023-04-24T05:32:54;100398.53;;;18.78
80246;BMP280;69558;39.208;-77.226;2023-04-24T05:35:20;100408.69;;;18.81
80246;BMP280;69558;39.208;-77.226;2023-04-24T05:37:46;100401.16;;;18.78
80246;BMP280;69558;39.208;-77.226;2023-04-24T05:40:13;100398.53;;;18.78
80246;BMP280;69558;39.208;-77.226;2023-04-24T05:42:39;100399.81;;;18.82
80246;BMP280;69558;39.208;-77.226;2023-04-24T05:45:06;100385.88;;;18.82
80246;BMP280;69558;39.208;-77.226;2023-04-24T05:47:33;100392.50;;;18.77
80246;BMP280;69558;39.208;-77.226;2023-04-24T05:49:58;100392.50;;;18.77
80246;BMP280;69558;39.208;-77.226;2023-04-24T05:52:24;100379.34;;;18.77
80246;BMP280;69558;39.208;-77.226;2023-04-24T05:54:51;100376.88;;;18.76
80246;BMP280;69558;39.208;-77.226;2023-04-24T05:57:17;100367.47;;;18.82
80246;BMP280;69558;39.208;-77.226;2023-04-24T05:59:43;100358.06;;;18.72
80246;BMP280;69558;39.208;-77.226;2023-04-24T06:02:11;100367.00;;;18.78
80246;BMP280;69558;39.208;-77.226;2023-04-24T06:04:37;100369.81;;;18.76
80246;BMP280;69558;39.208;-77.226;2023-04-24T06:07:03;100374.09;;;18.77
80246;BMP280;69558;39.208;-77.226;2023-04-24T06:09:29;100381.75;;;18.79
80246;BMP280;69558;39.208;-77.226;2023-04-24T06:11:55;100377.31;;;18.79
80246;BMP280;69558;39.208;-77.226;2023-04-24T06:14:22;100365.41;;;18.77
80246;BMP280;69558;39.208;-77.226;2023-04-24T06:16:47;100373.69;;;18.80
80246;BMP280;69558;39.208;-77.226;2023-04-24T06:19:14;100364.19;;;18.79
80246;BMP280;69558;39.208;-77.226;2023-04-24T06:21:40;100344.84;;;18.66
80246;BMP280;69558;39.208;-77.226;2023-04-24T06:24:06;100362.13;;;18.75
80246;BMP280;69558;39.208;-77.226;2023-04-24T06:26:33;100371.47;;;18.77
80246;BMP280;69558;39.208;-77.226;2023-04-24T06:28:58;100366.56;;;18.74
80246;BMP280;69558;39.208;-77.226;2023-04-24T06:31:25;100356.59;;;18.70
80246;BMP280;69558;39.208;-77.226;2023-04-24T06:33:51;100380.13;;;18.78
80246;BMP280;69558;39.208;-77.226;2023-04-24T06:36:17;100380.13;;;18.78
80246;BMP280;69558;39.208;-77.226;2023-04-24T06:38:43;100366.56;;;18.74
80246;BMP280;69558;39.208;-77.226;2023-04-24T06:41:11;100357.63;;;18.69
80246;BMP280;69558;39.208;-77.226;2023-04-24T06:43:37;100362.31;;;18.73
80246;BMP280;69558;39.208;-77.226;2023-04-24T06:46:03;100357.66;;;18.75
80246;BMP280;69558;39.208;-77.226;2023-04-24T06:48:29;100362.13;;;18.75
80246;BMP280;69558;39.208;-77.226;2023-04-24T06:50:55;100354.78;;;18.70
80246;BMP280;69558;39.208;-77.226;2023-04-24T06:53:21;100363.91;;;18.74
80246;BMP280;69558;39.208;-77.226;2023-04-24T06:55:47;100374.66;;;18.73
80246;BMP280;69558;39.208;-77.226;2023-04-24T06:58:13;100374.19;;;18.69
80246;BMP280;69558;39.208;-77.226;2023-04-24T07:00:39;100377.28;;;18.73
80246;BMP280;69558;39.208;-77.226;2023-04-24T07:03:05;100380.06;;;18.71
80246;BMP280;69558;39.208;-77.226;2023-04-24T07:05:31;100388.78;;;18.72
80246;BMP280;69558;39.208;-77.226;2023-04-24T07:07:59;100381.06;;;18.70
80246;BMP280;69558;39.208;-77.226;2023-04-24T07:10:26;100393.06;;;18.73
80246;BMP280;69558;39.208;-77.226;2023-04-24T07:12:54;100386.16;;;18.72
80246;BMP280;69558;39.208;-77.226;2023-04-24T07:15:21;100385.50;;;18.70
80246;BMP280;69558;39.208;-77.226;2023-04-24T07:17:49;100392.38;;;18.71
80246;BMP280;69558;39.208;-77.226;2023-04-24T07:20:15;100402.09;;;18.70
80246;BMP280;69558;39.208;-77.226;2023-04-24T07:22:41;100391.06;;;18.60
80246;BMP280;69558;39.208;-77.226;2023-04-24T07:25:07;100397.81;;;18.69
80246;BMP280;69558;39.208;-77.226;2023-04-24T07:27:34;100401.22;;;18.63
80246;BMP280;69558;39.208;-77.226;2023-04-24T07:30:00;100404.94;;;18.69
80246;BMP280;69558;39.208;-77.226;2023-04-24T07:32:27;100394.50;;;18.61
80246;BMP280;69558;39.208;-77.226;2023-04-24T07:34:53;100392.69;;;18.61
80246;BMP280;69558;39.208;-77.226;2023-04-24T07:37:18;100405.25;;;18.66
80246;BMP280;69558;39.208;-77.226;2023-04-24T07:39:45;100394.16;;;18.64
80246;BMP280;69558;39.208;-77.226;2023-04-24T07:42:11;100395.56;;;18.66
80246;BMP280;69558;39.208;-77.226;2023-04-24T07:44:37;100389.50;;;18.66
80246;BMP280;69558;39.208;-77.226;2023-04-24T07:47:03;100398.38;;;18.65
80246;BMP280;69558;39.208;-77.226;2023-04-24T07:49:29;100409.69;;;18.65
80246;BMP280;69558;39.208;-77.226;2023-04-24T07:51:55;100404.19;;;18.60
80246;BMP280;69558;39.208;-77.226;2023-04-24T07:54:21;100411.50;;;18.65
80246;BMP280;69558;39.208;-77.226;2023-04-24T07:56:47;100395.16;;;18.63
80246;BMP280;69558;39.208;-77.226;2023-04-24T07:59:14;100398.38;;;18.65
80246;BMP280;69558;39.208;-77.226;2023-04-24T08:01:41;100401.22;;;18.63
80246;BMP280;69558;39.208;-77.226;2023-04-24T08:04:07;100388.22;;;18.62
80246;BMP280;69558;39.208;-77.226;2023-04-24T08:06:33;100386.56;;;18.54
80246;BMP280;69558;39.208;-77.226;2023-04-24T08:09:00;100400.56;;;18.61
80246;BMP280;69558;39.208;-77.226;2023-04-24T08:11:26;100403.19;;;18.61
80246;BMP280;69558;39.208;-77.226;2023-04-24T08:13:53;100397.13;;;18.61
80246;BMP280;69558;39.208;-77.226;2023-04-24T08:16:20;100401.38;;;18.62
80246;BMP280;69558;39.208;-77.226;2023-04-24T08:18:46;100399.47;;;18.56
80246;BMP280;69558;39.208;-77.226;2023-04-24T08:21:12;100389.53;;;18.51
80246;BMP280;69558;39.208;-77.226;2023-04-24T08:23:42;100392.63;;;18.55
80246;BMP280;69558;39.208;-77.226;2023-04-24T08:26:09;100395.50;;;18.60
80246;BMP280;69558;39.208;-77.226;2023-04-24T08:28:36;100385.75;;;18.54
80246;BMP280;69558;39.208;-77.226;2023-04-24T08:31:02;100391.81;;;18.54
80246;BMP280;69558;39.208;-77.226;2023-04-24T08:33:29;100376.88;;;18.55
80246;BMP280;69558;39.208;-77.226;2023-04-24T08:36:03;100382.03;;;18.48
80246;BMP280;69558;39.208;-77.226;2023-04-24T08:38:30;100391.59;;;18.56
80246;BMP280;69558;39.208;-77.226;2023-04-24T08:40:58;100403.69;;;18.50
80246;BMP280;69558;39.208;-77.226;2023-04-24T08:43:25;100397.41;;;18.51
80246;BMP280;69558;39.208;-77.226;2023-04-24T08:45:52;100411.00;;;18.55
80246;BMP280;69558;39.208;-77.226;2023-04-24T08:48:18;100392.00;;;18.53
80246;BMP280;69558;39.208;-77.226;2023-04-24T08:50:45;100406.53;;;18.55
80246;BMP280;69558;39.208;-77.226;2023-04-24T08:53:11;100402.06;;;18.49
80246;BMP280;69558;39.208;-77.226;2023-04-24T08:55:41;100406.75;;;18.54
80246;BMP280;69558;39.208;-77.226;2023-04-24T08:58:09;100403.47;;;18.52
80246;BMP280;69558;39.208;-77.226;2023-04-24T09:00:35;100397.06;;;18.54
80246;BMP280;69558;39.208;-77.226;2023-04-24T09:03:02;100394.63;;;18.53
80246;BMP280;69558;39.208;-77.226;2023-04-24T09:05:29;100401.66;;;18.52
80246;BMP280;69558;39.208;-77.226;2023-04-24T09:07:57;100382.19;;;18.46
80246;BMP280;69558;39.208;-77.226;2023-04-24T09:10:24;100383.47;;;18.51
80246;BMP280;69558;39.208;-77.226;2023-04-24T09:12:51;100379.41;;;18.48
80246;BMP280;69558;39.208;-77.226;2023-04-24T09:15:21;100377.19;;;18.52
80246;BMP280;69558;39.208;-77.226;2023-04-24T09:17:47;100369.06;;;18.46
80246;BMP280;69558;39.208;-77.226;2023-04-24T09:20:13;100363.00;;;18.46
80246;BMP280;69558;39.208;-77.226;2023-04-24T09:22:42;100362.44;;;18.51
80246;BMP280;69558;39.208;-77.226;2023-04-24T09:25:09;100363.81;;;18.46
80246;BMP280;69558;39.208;-77.226;2023-04-24T09:27:45;100374.78;;;18.50
80246;BMP280;69558;39.208;-77.226;2023-04-24T09:30:12;100378.41;;;18.49
80246;BMP280;69558;39.208;-77.226;2023-04-24T09:32:38;100384.00;;;18.46
80246;BMP280;69558;39.208;-77.226;2023-04-24T09:37:38;100374.97;;;18.49
80246;BMP280;69558;39.208;-77.226;2023-04-24T09:40:18;100379.56;;;18.46
80246;BMP280;69558;39.208;-77.226;2023-04-24T09:42:50;100376.53;;;18.43
80246;BMP280;69558;39.208;-77.226;2023-04-24T09:45:17;100382.59;;;18.43
80246;BMP280;69558;39.208;-77.226;2023-04-24T09:47:43;100385.84;;;18.45
80246;BMP280;69558;39.208;-77.226;2023-04-24T09:50:15;100382.59;;;18.43
80246;BMP280;69558;39.208;-77.226;2023-04-24T09:52:47;100383.81;;;18.47
80246;BMP280;69558;39.208;-77.226;2023-04-24T09:55:21;100384.41;;;18.43
80246;BMP280;69558;39.208;-77.226;2023-04-24T09:57:51;100389.47;;;18.44
80246;BMP280;69558;39.208;-77.226;2023-04-24T10:00:28;100395.31;;;18.46
80246;BMP280;69558;39.208;-77.226;2023-04-24T10:02:57;100394.91;;;18.43
80246;BMP280;69558;39.208;-77.226;2023-04-24T10:05:24;100392.84;;;18.38
80246;BMP280;69558;39.208;-77.226;2023-04-24T10:07:51;100400.88;;;18.37
80246;BMP280;69558;39.208;-77.226;2023-04-24T10:10:18;100394.47;;;18.39
80246;BMP280;69558;39.208;-77.226;2023-04-24T10:12:45;100387.72;;;18.37
80246;BMP280;69558;39.208;-77.226;2023-04-24T10:15:11;100382.88;;;18.34
80246;BMP280;69558;39.208;-77.226;2023-04-24T10:17:39;100392.44;;;18.41
80246;BMP280;69558;39.208;-77.226;2023-04-24T10:20:07;100414.47;;;18.40
80246;BMP280;69558;39.208;-77.226;2023-04-24T10:22:35;100415.63;;;18.38
80246;BMP280;69558;39.208;-77.226;2023-04-24T10:25:04;100418.09;;;18.39
80246;BMP280;69558;39.208;-77.226;2023-04-24T10:27:31;100421.88;;;18.37
80246;BMP280;69558;39.208;-77.226;2023-04-24T10:29:58;100427.88;;;18.31
80246;BMP280;69558;39.208;-77.226;2023-04-24T10:32:25;100447.31;;;18.36
80246;BMP280;69558;39.208;-77.226;2023-04-24T10:34:52;100455.00;;;18.38
80246;BMP280;69558;39.208;-77.226;2023-04-24T10:37:18;100459.44;;;18.37
80246;BMP280;69558;39.208;-77.226;2023-04-24T10:39:48;100462.09;;;18.37
80246;BMP280;69558;39.208;-77.226;2023-04-24T10:42:17;100465.91;;;18.35
80246;BMP280;69558;39.208;-77.226;2023-04-24T10:44:43;100466.09;;;18.33
80246;BMP280;69558;39.208;-77.226;2023-04-24T10:47:14;100475.44;;;18.36
80246;BMP280;69558;39.208;-77.226;2023-04-24T10:49:41;100484.47;;;18.33
80246;BMP280;69558;39.208;-77.226;2023-04-24T10:52:09;100483.63;;;18.33
80246;BMP280;69558;39.208;-77.226;2023-04-24T10:54:41;100488.75;;;18.34
80246;BMP280;69558;39.208;-77.226;2023-04-24T10:57:33;100493.53;;;18.31
80246;BMP280;69558;39.208;-77.226;2023-04-24T11:00:13;100505.50;;;18.33
80246;BMP280;69558;39.208;-77.226;2023-04-24T11:02:41;100514.34;;;18.32
80246;BMP280;69558;39.208;-77.226;2023-04-24T11:05:16;100496.22;;;18.23
80246;BMP280;69558;39.208;-77.226;2023-04-24T11:10:46;100515.34;;;18.31
80246;BMP280;69558;39.208;-77.226;2023-04-24T11:13:17;100519.78;;;18.31
80246;BMP280;69558;39.208;-77.226;2023-04-24T11:16:14;100524.22;;;18.30
80246;BMP280;69558;39.208;-77.226;2023-04-24T11:18:42;100513.22;;;18.27
80246;BMP280;69558;39.208;-77.226;2023-04-24T11:21:22;100518.16;;;18.30
80246;BMP280;69558;39.208;-77.226;2023-04-24T11:23:47;100504.91;;;18.23
80246;BMP280;69558;39.208;-77.226;2023-04-24T11:26:19;100508.66;;;18.29
80246;BMP280;69558;39.208;-77.226;2023-04-24T11:28:48;100508.81;;;18.27
80246;BMP280;69558;39.208;-77.226;2023-04-24T11:31:34;100516.69;;;18.27
80246;BMP280;69558;39.208;-77.226;2023-04-24T11:34:15;100515.84;;;18.27
80246;BMP280;69558;39.208;-77.226;2023-04-24T11:36:46;100478.56;;;18.02
80246;BMP280;69558;39.208;-77.226;2023-04-24T11:39:15;100523.94;;;18.25
80246;BMP280;69558;39.208;-77.226;2023-04-24T11:41:41;100531.63;;;18.27
80246;BMP280;69558;39.208;-77.226;2023-04-24T11:44:09;100523.13;;;18.25
80246;BMP280;69558;39.208;-77.226;2023-04-24T11:46:35;100530.84;;;18.26
80246;BMP280;69558;39.208;-77.226;2023-04-24T11:49:03;100538.59;;;18.20
80246;BMP280;69558;39.208;-77.226;2023-04-24T11:51:29;100534.16;;;18.20
80246;BMP280;69558;39.208;-77.226;2023-04-24T11:53:55;100539.88;;;18.24
80246;BMP280;69558;39.208;-77.226;2023-04-24T11:56:25;100537.41;;;18.22
80246;BMP280;69558;39.208;-77.226;2023-04-24T11:58:52;100539.69;;;18.25
80246;BMP280;69558;39.208;-77.226;2023-04-24T12:01:21;100530.34;;;18.23
80246;BMP280;69558;39.208;-77.226;2023-04-24T12:03:48;100519.09;;;18.14
80246;BMP280;69558;39.208;-77.226;2023-04-24T12:06:17;100530.56;;;18.21
80246;BMP280;69558;39.208;-77.226;2023-04-24T12:08:47;100537.06;;;18.25
80246;BMP280;69558;39.208;-77.226;2023-04-24T12:11:15;100542.66;;;18.22
80246;BMP280;69558;39.208;-77.226;2023-04-24T12:13:42;100539.03;;;18.23
80246;BMP280;69558;39.208;-77.226;2023-04-24T12:16:08;100549.53;;;18.23
80246;BMP280;69558;39.208;-77.226;2023-04-24T12:18:34;100549.75;;;18.22
80246;BMP280;69558;39.208;-77.226;2023-04-24T12:21:19;100548.56;;;18.24
80246;BMP280;69558;39.208;-77.226;2023-04-24T12:23:46;100543.69;;;18.21
80246;BMP280;69558;39.208;-77.226;2023-04-24T12:26:19;100545.28;;;18.22
80246;BMP280;69558;39.208;-77.226;2023-04-24T12:28:48;100538.22;;;18.23
80246;BMP280;69558;39.208;-77.226;2023-04-24T12:31:21;100527.44;;;18.18
80246;BMP280;69558;39.208;-77.226;2023-04-24T12:33:47;100533.78;;;18.23
80246;BMP280;69558;39.208;-77.226;2023-04-24T12:36:14;100524.19;;;18.16
80246;BMP280;69558;39.208;-77.226;2023-04-24T12:38:43;100529.53;;;18.22
80246;BMP280;69558;39.208;-77.226;2023-04-24T12:41:15;100528.91;;;18.20
80246;BMP280;69558;39.208;-77.226;2023-04-24T12:43:51;100532.97;;;18.23
80246;BMP280;69558;39.208;-77.226;2023-04-24T12:46:17;100526.91;;;18.22
80246;BMP280;69558;39.208;-77.226;2023-04-24T12:48:43;100517.31;;;18.14
80246;BMP280;69558;39.208;-77.226;2023-04-24T12:51:11;100526.28;;;18.20
80246;BMP280;69558;39.208;-77.226;2023-04-24T12:53:37;100516.66;;;18.12
80246;BMP280;69558;39.208;-77.226;2023-04-24T12:56:03;100518.41;;;18.20
80246;BMP280;69558;39.208;-77.226;2023-04-24T12:58:29;100520.38;;;18.18
80246;BMP280;69558;39.208;-77.226;2023-04-24T13:00:55;100520.59;;;18.17
80246;BMP280;69558;39.208;-77.226;2023-04-24T13:03:21;100522.56;;;18.14
80246;BMP280;69558;39.208;-77.226;2023-04-24T13:05:48;100510.13;;;18.08
80246;BMP280;69558;39.208;-77.226;2023-04-24T13:08:14;100514.75;;;18.06
80246;BMP280;69558;39.208;-77.226;2023-04-24T13:10:40;100524.91;;;18.09
80246;BMP280;69558;39.208;-77.226;2023-04-24T13:13:07;100503.03;;;17.94
80246;BMP280;69558;39.208;-77.226;2023-04-24T13:15:33;100514.94;;;18.05
80246;BMP280;69558;39.208;-77.226;2023-04-24T13:17:59;100509.69;;;18.05
80246;BMP280;69558;39.208;-77.226;2023-04-24T13:20:26;100510.88;;;18.02
80246;BMP280;69558;39.208;-77.226;2023-04-24T13:22:53;100513.13;;;18.05
80246;BMP280;69558;39.208;-77.226;2023-04-24T13:25:19;100518.22;;;18.07
80246;BMP280;69558;39.208;-77.226;2023-04-24T13:27:46;100512.75;;;18.08
80246;BMP280;69558;39.208;-77.226;2023-04-24T13:30:12;100508.97;;;18.11
80246;BMP280;69558;39.208;-77.226;2023-04-24T13:32:40;100513.25;;;18.12
80246;BMP280;69558;39.208;-77.226;2023-04-24T13:35:07;100513.03;;;18.13
80246;BMP280;69558;39.208;-77.226;2023-04-24T13:37:34;100516.47;;;18.14